sensor_id;sensor_type;location;lat;lon;timestamp;pressure;altitude;pressure_sealevel;temperature;humidity
19827;BME280;10074;52.018;4.726;2023-08-30T00:02:13;46251.34;;;-144.79;100.00
19827;BME280;10074;52.018;4.726;2023-08-30T00:07:13;46249.34;;;-144.79;100.00
19827;BME280;10074;52.018;4.726;2023-08-30T00:12:14;46253.34;;;-144.79;100.00
19827;BME280;10074;52.018;4.726;2023-08-30T00:17:14;46247.31;;;-144.79;100.00
19827;BME280;10074;52.018;4.726;2023-08-30T00:22:15;46255.34;;;-144.79;100.00
19827;BME280;10074;52.018;4.726;2023-08-30T00:27:15;46251.34;;;-144.79;100.00
19827;BME280;10074;52.018;4.726;2023-08-30T00:32:15;46245.31;;;-144.79;100.00
19827;BME280;10074;52.018;4.726;2023-08-30T00:37:16;46249.34;;;-144.79;100.00
19827;BME280;10074;52.018;4.726;2023-08-30T00:42:16;46259.34;;;-144.79;100.00
19827;BME280;10074;52.018;4.726;2023-08-30T00:47:16;46251.34;;;-144.79;100.00
19827;BME280;10074;52.018;4.726;2023-08-30T00:52:17;46249.34;;;-144.79;100.00
19827;BME280;10074;52.018;4.726;2023-08-30T00:57:17;46247.31;;;-144.79;100.00
19827;BME280;10074;52.018;4.726;2023-08-30T01:02:18;46245.31;;;-144.79;100.00
19827;BME280;10074;52.018;4.726;2023-08-30T01:07:18;46255.34;;;-144.79;100.00
19827;BME280;10074;52.018;4.726;2023-08-30T01:12:22;46245.31;;;-144.79;100.00
19827;BME280;10074;52.018;4.726;2023-08-30T01:17:24;46259.34;;;-144.79;100.00
19827;BME280;10074;52.018;4.726;2023-08-30T01:27:35;46243.31;;;-144.79;100.00
19827;BME280;10074;52.018;4.726;2023-08-30T01:32:38;46247.31;;;-144.79;100.00
19827;BME280;10074;52.018;4.726;2023-08-30T01:37:39;46245.31;;;-144.79;100.00
19827;BME280;10074;52.018;4.726;2023-08-30T01:42:40;46253.34;;;-144.79;100.00
19827;BME280;10074;52.018;4.726;2023-08-30T01:47:42;46251.34;;;-144.79;100.00
19827;BME280;10074;52.018;4.726;2023-08-30T01:52:43;46255.34;;;-144.79;100.00
19827;BME280;10074;52.018;4.726;2023-08-30T01:57:44;46247.31;;;-144.79;100.00
19827;BME280;10074;52.018;4.726;2023-08-30T02:02:45;46249.34;;;-144.79;100.00
19827;BME280;10074;52.018;4.726;2023-08-30T02:08:02;46255.34;;;-144.79;100.00
19827;BME280;10074;52.018;4.726;2023-08-30T02:13:05;46251.34;;;-144.79;100.00
19827;BME280;10074;52.018;4.726;2023-08-30T02:18:06;46249.34;;;-144.79;100.00
19827;BME280;10074;52.018;4.726;2023-08-30T02:23:09;46255.34;;;-144.79;100.00
19827;BME280;10074;52.018;4.726;2023-08-30T02:28:10;46259.34;;;-144.79;100.00
19827;BME280;10074;52.018;4.726;2023-08-30T02:33:10;46251.34;;;-144.79;100.00
19827;BME280;10074;52.018;4.726;2023-08-30T02:38:10;46251.34;;;-144.79;100.00
19827;BME280;10074;52.018;4.726;2023-08-30T02:43:11;46255.34;;;-144.79;100.00
19827;BME280;10074;52.018;4.726;2023-08-30T02:48:11;46255.34;;;-144.79;100.00
19827;BME280;10074;52.018;4.726;2023-08-30T02:53:11;46257.34;;;-144.79;100.00
19827;BME280;10074;52.018;4.726;2023-08-30T02:58:12;46245.31;;;-144.79;100.00
19827;BME280;10074;52.018;4.726;2023-08-30T03:03:12;46245.31;;;-144.79;100.00
19827;BME280;10074;52.018;4.726;2023-08-30T03:08:13;46245.31;;;-144.79;100.00
19827;BME280;10074;52.018;4.726;2023-08-30T03:13:13;46251.34;;;-144.79;100.00
19827;BME280;10074;52.018;4.726;2023-08-30T03:18:13;46255.34;;;-144.79;100.00
19827;BME280;10074;52.018;4.726;2023-08-30T03:23:13;46251.34;;;-144.79;100.00
19827;BME280;10074;52.018;4.726;2023-08-30T03:28:14;46249.34;;;-144.79;100.00
19827;BME280;10074;52.018;4.726;2023-08-30T03:33:14;46251.34;;;-144.79;100.00
19827;BME280;10074;52.018;4.726;2023-08-30T03:38:14;46239.31;;;-144.79;100.00
19827;BME280;10074;52.018;4.726;2023-08-30T03:43:15;46251.34;;;-144.79;100.00
19827;BME280;10074;52.018;4.726;2023-08-30T03:48:15;46247.31;;;-144.79;100.00
19827;BME280;10074;52.018;4.726;2023-08-30T03:53:15;46243.31;;;-144.79;100.00
19827;BME280;10074;52.018;4.726;2023-08-30T03:58:17;46247.31;;;-144.79;100.00
19827;BME280;10074;52.018;4.726;2023-08-30T04:03:17;46247.31;;;-144.79;100.00
19827;BME280;10074;52.018;4.726;2023-08-30T04:08:18;46247.31;;;-144.79;100.00
19827;BME280;10074;52.018;4.726;2023-08-30T04:13:18;46249.34;;;-144.79;100.00
19827;BME280;10074;52.018;4.726;2023-08-30T04:18:19;46255.34;;;-144.79;100.00
19827;BME280;10074;52.018;4.726;2023-08-30T04:23:19;46251.34;;;-144.79;100.00
19827;BME280;10074;52.018;4.726;2023-08-30T04:28:19;46249.34;;;-144.79;100.00
19827;BME280;10074;52.018;4.726;2023-08-30T04:33:20;46251.34;;;-144.79;100.00
19827;BME280;10074;52.018;4.726;2023-08-30T04:38:23;46247.31;;;-144.79;100.00
19827;BME280;10074;52.018;4.726;2023-08-30T04:43:24;46247.31;;;-144.79;100.00
19827;BME280;10074;52.018;4.726;2023-08-30T04:48:24;46247.31;;;-144.79;100.00
19827;BME280;10074;52.018;4.726;2023-08-30T04:53:24;46247.31;;;-144.79;100.00
19827;BME280;10074;52.018;4.726;2023-08-30T04:58:24;46247.31;;;-144.79;100.00
19827;BME280;10074;52.018;4.726;2023-08-30T05:03:25;46251.34;;;-144.79;100.00
19827;BME280;10074;52.018;4.726;2023-08-30T05:08:25;46231.28;;;-144.79;100.00
19827;BME280;10074;52.018;4.726;2023-08-30T05:13:25;46245.31;;;-144.79;100.00
19827;BME280;10074;52.018;4.726;2023-08-30T05:18:26;46243.31;;;-144.79;100.00
19827;BME280;10074;52.018;4.726;2023-08-30T05:23:26;46251.34;;;-144.79;100.00
19827;BME280;10074;52.018;4.726;2023-08-30T05:28:26;46247.31;;;-144.79;100.00
19827;BME280;10074;52.018;4.726;2023-08-30T05:33:27;46243.31;;;-144.79;100.00
19827;BME280;10074;52.018;4.726;2023-08-30T05:38:27;46249.34;;;-144.79;100.00
19827;BME280;10074;52.018;4.726;2023-08-30T05:43:27;46253.34;;;-144.79;100.00
19827;BME280;10074;52.018;4.726;2023-08-30T05:48:32;46247.31;;;-144.79;100.00
19827;BME280;10074;52.018;4.726;2023-08-30T05:53:32;46251.34;;;-144.79;100.00
19827;BME280;10074;52.018;4.726;2023-08-30T05:58:33;46255.34;;;-144.79;100.00
19827;BME280;10074;52.018;4.726;2023-08-30T06:03:33;46255.34;;;-144.79;100.00
19827;BME280;10074;52.018;4.726;2023-08-30T06:08:34;46259.34;;;-144.79;100.00
19827;BME280;10074;52.018;4.726;2023-08-30T06:13:34;46253.34;;;-144.79;100.00
19827;BME280;10074;52.018;4.726;2023-08-30T06:18:35;46251.34;;;-144.79;100.00
19827;BME280;10074;52.018;4.726;2023-08-30T06:23:38;46257.34;;;-144.79;100.00
19827;BME280;10074;52.018;4.726;2023-08-30T06:28:38;46255.34;;;-144.79;100.00
19827;BME280;10074;52.018;4.726;2023-08-30T06:33:38;46261.34;;;-144.79;100.00
19827;BME280;10074;52.018;4.726;2023-08-30T06:38:39;46259.34;;;-144.79;100.00
19827;BME280;10074;52.018;4.726;2023-08-30T06:43:39;46255.34;;;-144.79;100.00
19827;BME280;10074;52.018;4.726;2023-08-30T06:48:39;46259.34;;;-144.79;100.00
19827;BME280;10074;52.018;4.726;2023-08-30T06:53:40;46263.38;;;-144.79;100.00
19827;BME280;10074;52.018;4.726;2023-08-30T06:58:40;46259.34;;;-144.79;100.00
19827;BME280;10074;52.018;4.726;2023-08-30T07:03:40;46263.38;;;-144.79;100.00
19827;BME280;10074;52.018;4.726;2023-08-30T07:08:41;46265.38;;;-144.79;100.00
19827;BME280;10074;52.018;4.726;2023-08-30T07:13:41;46267.38;;;-144.79;100.00
19827;BME280;10074;52.018;4.726;2023-08-30T07:18:41;46265.38;;;-144.79;100.00
19827;BME280;10074;52.018;4.726;2023-08-30T07:23:42;46265.38;;;-144.79;100.00
19827;BME280;10074;52.018;4.726;2023-08-30T07:28:42;46269.38;;;-144.79;100.00
19827;BME280;10074;52.018;4.726;2023-08-30T07:33:42;46259.34;;;-144.79;100.00
19827;BME280;10074;52.018;4.726;2023-08-30T07:38:42;46263.38;;;-144.79;100.00
19827;BME280;10074;52.018;4.726;2023-08-30T07:43:43;46269.38;;;-144.79;100.00
19827;BME280;10074;52.018;4.726;2023-08-30T07:48:43;46267.38;;;-144.79;100.00
19827;BME280;10074;52.018;4.726;2023-08-30T07:53:43;46275.41;;;-144.79;100.00
19827;BME280;10074;52.018;4.726;2023-08-30T07:58:44;46263.38;;;-144.79;100.00
19827;BME280;10074;52.018;4.726;2023-08-30T08:03:44;46273.38;;;-144.79;100.00
19827;BME280;10074;52.018;4.726;2023-08-30T08:08:44;46273.38;;;-144.79;100.00
19827;BME280;10074;52.018;4.726;2023-08-30T08:13:45;46279.41;;;-144.79;100.00
19827;BME280;10074;52.018;4.726;2023-08-30T08:18:45;46271.38;;;-144.79;100.00
19827;BME280;10074;52.018;4.726;2023-08-30T08:23:45;46281.41;;;-144.79;100.00
19827;BME280;10074;52.018;4.726;2023-08-30T08:28:49;46279.41;;;-144.79;100.00
19827;BME280;10074;52.018;4.726;2023-08-30T08:33:51;46273.38;;;-144.79;100.00
19827;BME280;10074;52.018;4.726;2023-08-30T08:38:52;46281.41;;;-144.79;100.00
19827;BME280;10074;52.018;4.726;2023-08-30T08:43:53;46275.41;;;-144.79;100.00
19827;BME280;10074;52.018;4.726;2023-08-30T08:48:55;46277.41;;;-144.79;100.00
19827;BME280;10074;52.018;4.726;2023-08-30T08:54:02;46277.41;;;-144.79;100.00
19827;BME280;10074;52.018;4.726;2023-08-30T08:59:04;46277.41;;;-144.79;100.00
19827;BME280;10074;52.018;4.726;2023-08-30T09:04:09;46279.41;;;-144.79;100.00
19827;BME280;10074;52.018;4.726;2023-08-30T09:09:10;46279.41;;;-144.79;100.00
19827;BME280;10074;52.018;4.726;2023-08-30T09:14:10;46283.41;;;-144.79;100.00
19827;BME280;10074;52.018;4.726;2023-08-30T09:19:10;46281.41;;;-144.79;100.00
19827;BME280;10074;52.018;4.726;2023-08-30T09:24:11;46277.41;;;-144.79;100.00
19827;BME280;10074;52.018;4.726;2023-08-30T09:29:11;46277.41;;;-144.79;100.00
19827;BME280;10074;52.018;4.726;2023-08-30T09:34:12;46267.38;;;-144.79;100.00
19827;BME280;10074;52.018;4.726;2023-08-30T09:39:13;46275.41;;;-144.79;100.00
19827;BME280;10074;52.018;4.726;2023-08-30T09:44:16;46277.41;;;-144.79;100.00
19827;BME280;10074;52.018;4.726;2023-08-30T09:49:19;46275.41;;;-144.79;100.00
19827;BME280;10074;52.018;4.726;2023-08-30T09:54:22;46273.38;;;-144.79;100.00
19827;BME280;10074;52.018;4.726;2023-08-30T09:59:24;46271.38;;;-144.79;100.00
19827;BME280;10074;52.018;4.726;2023-08-30T10:04:25;46269.38;;;-144.79;100.00
19827;BME280;10074;52.018;4.726;2023-08-30T10:09:27;46275.41;;;-144.79;100.00
19827;BME280;10074;52.018;4.726;2023-08-30T10:14:29;46275.41;;;-144.79;100.00
19827;BME280;10074;52.018;4.726;2023-08-30T10:19:30;46267.38;;;-144.79;100.00
19827;BME280;10074;52.018;4.726;2023-08-30T10:24:53;46277.41;;;-144.79;100.00
19827;BME280;10074;52.018;4.726;2023-08-30T10:29:55;46281.41;;;-144.79;100.00
19827;BME280;10074;52.018;4.726;2023-08-30T10:34:55;46281.41;;;-144.79;100.00
19827;BME280;10074;52.018;4.726;2023-08-30T10:40:00;46271.38;;;-144.79;100.00
19827;BME280;10074;52.018;4.726;2023-08-30T10:45:07;46279.41;;;-144.79;100.00
19827;BME280;10074;52.018;4.726;2023-08-30T10:50:12;46283.41;;;-144.79;100.00
19827;BME280;10074;52.018;4.726;2023-08-30T10:55:16;46271.38;;;-144.79;100.00
19827;BME280;10074;52.018;4.726;2023-08-30T11:00:20;46273.38;;;-144.79;100.00
19827;BME280;10074;52.018;4.726;2023-08-30T11:05:23;46267.38;;;-144.79;100.00
19827;BME280;10074;52.018;4.726;2023-08-30T11:10:23;46261.34;;;-144.79;100.00
19827;BME280;10074;52.018;4.726;2023-08-30T11:15:26;46259.34;;;-144.79;100.00
19827;BME280;10074;52.018;4.726;2023-08-30T11:20:27;46261.34;;;-144.79;100.00
19827;BME280;10074;52.018;4.726;2023-08-30T11:25:27;46263.38;;;-144.79;100.00
19827;BME280;10074;52.018;4.726;2023-08-30T11:30:28;46251.34;;;-144.79;100.00
19827;BME280;10074;52.018;4.726;2023-08-30T11:35:29;46259.34;;;-144.79;100.00
19827;BME280;10074;52.018;4.726;2023-08-30T11:40:32;46249.34;;;-144.79;100.00
19827;BME280;10074;52.018;4.726;2023-08-30T11:45:33;46247.31;;;-144.79;100.00
19827;BME280;10074;52.018;4.726;2023-08-30T11:50:36;46253.34;;;-144.79;100.00
19827;BME280;10074;52.018;4.726;2023-08-30T11:55:37;46249.34;;;-144.79;100.00
19827;BME280;10074;52.018;4.726;2023-08-30T12:00:38;46239.31;;;-144.79;100.00
19827;BME280;10074;52.018;4.726;2023-08-30T12:05:44;46245.31;;;-144.79;100.00
19827;BME280;10074;52.018;4.726;2023-08-30T12:10:45;46251.34;;;-144.79;100.00
19827;BME280;10074;52.018;4.726;2023-08-30T12:15:46;46259.34;;;-144.79;100.00
19827;BME280;10074;52.018;4.726;2023-08-30T12:20:58;46253.34;;;-144.79;100.00
19827;BME280;10074;52.018;4.726;2023-08-30T12:26:08;46259.34;;;-144.79;100.00
19827;BME280;10074;52.018;4.726;2023-08-30T12:31:09;46251.34;;;-144.79;100.00
19827;BME280;10074;52.018;4.726;2023-08-30T12:36:10;46251.34;;;-144.79;100.00
19827;BME280;10074;52.018;4.726;2023-08-30T12:41:10;46253.34;;;-144.79;100.00
19827;BME280;10074;52.018;4.726;2023-08-30T12:46:11;46257.34;;;-144.79;100.00
19827;BME280;10074;52.018;4.726;2023-08-30T12:51:11;46255.34;;;-144.79;100.00
19827;BME280;10074;52.018;4.726;2023-08-30T12:56:13;46251.34;;;-144.79;100.00
19827;BME280;10074;52.018;4.726;2023-08-30T13:01:13;46247.31;;;-144.79;100.00
19827;BME280;10074;52.018;4.726;2023-08-30T13:06:14;46263.38;;;-144.79;100.00
19827;BME280;10074;52.018;4.726;2023-08-30T13:11:14;46269.38;;;-144.79;100.00
19827;BME280;10074;52.018;4.726;2023-08-30T13:16:14;46265.38;;;-144.79;100.00
19827;BME280;10074;52.018;4.726;2023-08-30T13:21:15;46265.38;;;-144.79;100.00
19827;BME280;10074;52.018;4.726;2023-08-30T13:26:15;46267.38;;;-144.79;100.00
19827;BME280;10074;52.018;4.726;2023-08-30T13:31:15;46265.38;;;-144.79;100.00
19827;BME280;10074;52.018;4.726;2023-08-30T13:36:16;46275.41;;;-144.79;100.00
19827;BME280;10074;52.018;4.726;2023-08-30T13:41:16;46281.41;;;-144.79;100.00
19827;BME280;10074;52.018;4.726;2023-08-30T13:46:16;46273.38;;;-144.79;100.00
19827;BME280;10074;52.018;4.726;2023-08-30T13:51:24;46279.41;;;-144.79;100.00
19827;BME280;10074;52.018;4.726;2023-08-30T13:56:25;46275.41;;;-144.79;100.00
19827;BME280;10074;52.018;4.726;2023-08-30T14:01:25;46279.41;;;-144.79;100.00
19827;BME280;10074;52.018;4.726;2023-08-30T14:06:25;46277.41;;;-144.79;100.00
19827;BME280;10074;52.018;4.726;2023-08-30T14:11:26;46271.38;;;-144.79;100.00
19827;BME280;10074;52.018;4.726;2023-08-30T14:16:26;46275.41;;;-144.79;100.00
19827;BME280;10074;52.018;4.726;2023-08-30T14:21:26;46279.41;;;-144.79;100.00
19827;BME280;10074;52.018;4.726;2023-08-30T14:26:28;46283.41;;;-144.79;100.00
19827;BME280;10074;52.018;4.726;2023-08-30T14:31:28;46295.44;;;-144.79;100.00
19827;BME280;10074;52.018;4.726;2023-08-30T14:36:30;46279.41;;;-144.79;100.00
19827;BME280;10074;52.018;4.726;2023-08-30T14:41:30;46279.41;;;-144.79;100.00
19827;BME280;10074;52.018;4.726;2023-08-30T14:46:32;46287.44;;;-144.79;100.00
19827;BME280;10074;52.018;4.726;2023-08-30T14:51:32;46281.41;;;-144.79;100.00
19827;BME280;10074;52.018;4.726;2023-08-30T14:56:33;46291.44;;;-144.79;100.00
19827;BME280;10074;52.018;4.726;2023-08-30T15:01:33;46295.44;;;-144.79;100.00
19827;BME280;10074;52.018;4.726;2023-08-30T15:06:33;46293.44;;;-144.79;100.00
19827;BME280;10074;52.018;4.726;2023-08-30T15:11:34;46283.41;;;-144.79;100.00
19827;BME280;10074;52.018;4.726;2023-08-30T15:16:35;46291.44;;;-144.79;100.00
19827;BME280;10074;52.018;4.726;2023-08-30T15:21:35;46293.44;;;-144.79;100.00
19827;BME280;10074;52.018;4.726;2023-08-30T15:26:36;46287.44;;;-144.79;100.00
19827;BME280;10074;52.018;4.726;2023-08-30T15:31:37;46289.44;;;-144.79;100.00
19827;BME280;10074;52.018;4.726;2023-08-30T15:36:37;46289.44;;;-144.79;100.00
19827;BME280;10074;52.018;4.726;2023-08-30T15:41:38;46287.44;;;-144.79;100.00
19827;BME280;10074;52.018;4.726;2023-08-30T15:46:38;46279.41;;;-144.79;100.00
19827;BME280;10074;52.018;4.726;2023-08-30T15:51:38;46275.41;;;-144.79;100.00
19827;BME280;10074;52.018;4.726;2023-08-30T15:56:39;46283.41;;;-144.79;100.00
19827;BME280;10074;52.018;4.726;2023-08-30T16:01:39;46279.41;;;-144.79;100.00
19827;BME280;10074;52.018;4.726;2023-08-30T16:06:40;46277.41;;;-144.79;100.00
19827;BME280;10074;52.018;4.726;2023-08-30T16:11:42;46273.38;;;-144.79;100.00
19827;BME280;10074;52.018;4.726;2023-08-30T16:16:42;46275.41;;;-144.79;100.00
19827;BME280;10074;52.018;4.726;2023-08-30T16:21:42;46275.41;;;-144.79;100.00
19827;BME280;10074;52.018;4.726;2023-08-30T16:26:43;46263.38;;;-144.79;100.00
19827;BME280;10074;52.018;4.726;2023-08-30T16:31:43;46265.38;;;-144.79;100.00
19827;BME280;10074;52.018;4.726;2023-08-30T16:36:44;46273.38;;;-144.79;100.00
19827;BME280;10074;52.018;4.726;2023-08-30T16:41:44;46265.38;;;-144.79;100.00
19827;BME280;10074;52.018;4.726;2023-08-30T16:46:44;46265.38;;;-144.79;100.00
19827;BME280;10074;52.018;4.726;2023-08-30T16:51:45;46267.38;;;-144.79;100.00
19827;BME280;10074;52.018;4.726;2023-08-30T16:56:45;46265.38;;;-144.79;100.00
19827;BME280;10074;52.018;4.726;2023-08-30T17:01:46;46271.38;;;-144.79;100.00
19827;BME280;10074;52.018;4.726;2023-08-30T17:06:47;46265.38;;;-144.79;100.00
19827;BME280;10074;52.018;4.726;2023-08-30T17:11:48;46275.41;;;-144.79;100.00
19827;BME280;10074;52.018;4.726;2023-08-30T17:16:48;46269.38;;;-144.79;100.00
19827;BME280;10074;52.018;4.726;2023-08-30T17:21:49;46265.38;;;-144.79;100.00
19827;BME280;10074;52.018;4.726;2023-08-30T17:26:50;46263.38;;;-144.79;100.00
19827;BME280;10074;52.018;4.726;2023-08-30T17:31:50;46271.38;;;-144.79;100.00
19827;BME280;10074;52.018;4.726;2023-08-30T17:36:50;46267.38;;;-144.79;100.00
19827;BME280;10074;52.018;4.726;2023-08-30T17:41:57;46275.41;;;-144.79;100.00
19827;BME280;10074;52.018;4.726;2023-08-30T17:46:58;46267.38;;;-144.79;100.00
19827;BME280;10074;52.018;4.726;2023-08-30T17:51:58;46263.38;;;-144.79;100.00
19827;BME280;10074;52.018;4.726;2023-08-30T17:56:58;46273.38;;;-144.79;100.00
19827;BME280;10074;52.018;4.726;2023-08-30T18:01:59;46277.41;;;-144.79;100.00
19827;BME280;10074;52.018;4.726;2023-08-30T18:06:59;46267.38;;;-144.79;100.00
19827;BME280;10074;52.018;4.726;2023-08-30T18:12:03;46279.41;;;-144.79;100.00
19827;BME280;10074;52.018;4.726;2023-08-30T18:17:03;46273.38;;;-144.79;100.00
19827;BME280;10074;52.018;4.726;2023-08-30T18:22:04;46267.38;;;-144.79;100.00
19827;BME280;10074;52.018;4.726;2023-08-30T18:27:04;46273.38;;;-144.79;100.00
19827;BME280;10074;52.018;4.726;2023-08-30T18:32:05;46267.38;;;-144.79;100.00
19827;BME280;10074;52.018;4.726;2023-08-30T18:37:05;46267.38;;;-144.79;100.00
19827;BME280;10074;52.018;4.726;2023-08-30T18:42:06;46263.38;;;-144.79;100.00
19827;BME280;10074;52.018;4.726;2023-08-30T18:47:07;46267.38;;;-144.79;100.00
19827;BME280;10074;52.018;4.726;2023-08-30T18:52:10;46267.38;;;-144.79;100.00
19827;BME280;10074;52.018;4.726;2023-08-30T18:57:11;46277.41;;;-144.79;100.00
19827;BME280;10074;52.018;4.726;2023-08-30T19:02:11;46267.38;;;-144.79;100.00
19827;BME280;10074;52.018;4.726;2023-08-30T19:07:13;46263.38;;;-144.79;100.00
19827;BME280;10074;52.018;4.726;2023-08-30T19:12:14;46267.38;;;-144.79;100.00
19827;BME280;10074;52.018;4.726;2023-08-30T19:17:14;46269.38;;;-144.79;100.00
19827;BME280;10074;52.018;4.726;2023-08-30T19:22:15;46267.38;;;-144.79;100.00
19827;BME280;10074;52.018;4.726;2023-08-30T19:27:16;46275.41;;;-144.79;100.00
19827;BME280;10074;52.018;4.726;2023-08-30T19:32:17;46269.38;;;-144.79;100.00
19827;BME280;10074;52.018;4.726;2023-08-30T19:37:17;46271.38;;;-144.79;100.00
19827;BME280;10074;52.018;4.726;2023-08-30T19:42:19;46263.38;;;-144.79;100.00
19827;BME280;10074;52.018;4.726;2023-08-30T19:47:21;46271.38;;;-144.79;100.00
19827;BME280;10074;52.018;4.726;2023-08-30T19:52:21;46265.38;;;-144.79;100.00
19827;BME280;10074;52.018;4.726;2023-08-30T19:57:22;46279.41;;;-144.79;100.00
19827;BME280;10074;52.018;4.726;2023-08-30T20:02:22;46269.38;;;-144.79;100.00
19827;BME280;10074;52.018;4.726;2023-08-30T20:07:23;46267.38;;;-144.79;100.00
19827;BME280;10074;52.018;4.726;2023-08-30T20:12:23;46267.38;;;-144.79;100.00
19827;BME280;10074;52.018;4.726;2023-08-30T20:17:23;46275.41;;;-144.79;100.00
19827;BME280;10074;52.018;4.726;2023-08-30T20:22:24;46271.38;;;-144.79;100.00
19827;BME280;10074;52.018;4.726;2023-08-30T20:27:25;46263.38;;;-144.79;100.00
19827;BME280;10074;52.018;4.726;2023-08-30T20:32:25;46267.38;;;-144.79;100.00
19827;BME280;10074;52.018;4.726;2023-08-30T20:37:26;46271.38;;;-144.79;100.00
19827;BME280;10074;52.018;4.726;2023-08-30T20:42:28;46271.38;;;-144.79;100.00
19827;BME280;10074;52.018;4.726;2023-08-30T20:47:30;46267.38;;;-144.79;100.00
19827;BME280;10074;52.018;4.726;2023-08-30T20:52:32;46277.41;;;-144.79;100.00
19827;BME280;10074;52.018;4.726;2023-08-30T20:57:36;46273.38;;;-144.79;100.00
19827;BME280;10074;52.018;4.726;2023-08-30T21:02:36;46265.38;;;-144.79;100.00
19827;BME280;10074;52.018;4.726;2023-08-30T21:07:36;46271.38;;;-144.79;100.00
19827;BME280;10074;52.018;4.726;2023-08-30T21:12:37;46271.38;;;-144.79;100.00
19827;BME280;10074;52.018;4.726;2023-08-30T21:17:37;46275.41;;;-144.79;100.00
19827;BME280;10074;52.018;4.726;2023-08-30T21:22:37;46271.38;;;-144.79;100.00
19827;BME280;10074;52.018;4.726;2023-08-30T21:27:38;46275.41;;;-144.79;100.00
19827;BME280;10074;52.018;4.726;2023-08-30T21:32:38;46263.38;;;-144.79;100.00
19827;BME280;10074;52.018;4.726;2023-08-30T21:37:40;46279.41;;;-144.79;100.00
19827;BME280;10074;52.018;4.726;2023-08-30T21:42:41;46275.41;;;-144.79;100.00
19827;BME280;10074;52.018;4.726;2023-08-30T21:47:41;46271.38;;;-144.79;100.00
19827;BME280;10074;52.018;4.726;2023-08-30T21:52:41;46271.38;;;-144.79;100.00
19827;BME280;10074;52.018;4.726;2023-08-30T21:57:43;46275.41;;;-144.79;100.00
19827;BME280;10074;52.018;4.726;2023-08-30T22:02:45;46267.38;;;-144.79;100.00
19827;BME280;10074;52.018;4.726;2023-08-30T22:07:45;46267.38;;;-144.79;100.00
19827;BME280;10074;52.018;4.726;2023-08-30T22:12:46;46267.38;;;-144.79;100.00
19827;BME280;10074;52.018;4.726;2023-08-30T22:17:51;46271.38;;;-144.79;100.00
19827;BME280;10074;52.018;4.726;2023-08-30T22:22:51;46275.41;;;-144.79;100.00
19827;BME280;10074;52.018;4.726;2023-08-30T22:27:52;46269.38;;;-144.79;100.00
19827;BME280;10074;52.018;4.726;2023-08-30T22:32:52;46259.34;;;-144.79;100.00
19827;BME280;10074;52.018;4.726;2023-08-30T22:37:53;46267.38;;;-144.79;100.00
19827;BME280;10074;52.018;4.726;2023-08-30T22:42:53;46267.38;;;-144.79;100.00
19827;BME280;10074;52.018;4.726;2023-08-30T22:47:54;46275.41;;;-144.79;100.00
19827;BME280;10074;52.018;4.726;2023-08-30T22:52:55;46269.38;;;-144.79;100.00
19827;BME280;10074;52.018;4.726;2023-08-30T22:57:55;46261.34;;;-144.79;100.00
19827;BME280;10074;52.018;4.726;2023-08-30T23:02:56;46263.38;;;-144.79;100.00
19827;BME280;10074;52.018;4.726;2023-08-30T23:07:56;46259.34;;;-144.79;100.00
19827;BME280;10074;52.018;4.726;2023-08-30T23:12:58;46267.38;;;-144.79;100.00
19827;BME280;10074;52.018;4.726;2023-08-30T23:17:58;46265.38;;;-144.79;100.00
19827;BME280;10074;52.018;4.726;2023-08-30T23:22:58;46265.38;;;-144.79;100.00
19827;BME280;10074;52.018;4.726;2023-08-30T23:27:58;46279.41;;;-144.79;100.00
19827;BME280;10074;52.018;4.726;2023-08-30T23:33:00;46271.38;;;-144.79;100.00
19827;BME280;10074;52.018;4.726;2023-08-30T23:38:00;46267.38;;;-144.79;100.00
19827;BME280;10074;52.018;4.726;2023-08-30T23:43:00;46269.38;;;-144.79;100.00
19827;BME280;10074;52.018;4.726;2023-08-30T23:48:01;46277.41;;;-144.79;100.00
19827;BME280;10074;52.018;4.726;2023-08-30T23:53:01;46271.38;;;-144.79;100.00
19827;BME280;10074;52.018;4.726;2023-08-30T23:58:03;46273.38;;;-144.79;100.00
